臺東航空站 - ATIS

METAR RCFN 201230Z 35006KT 290V040 9999 FEW022 BKN030 BKN045 23/19 Q1020 NOSIG RMK A3013=

站台狀態:Online
最後更新:2018-10-20 22:45:01